createdAt,value
2023-06-03T00:00:21.335Z,95951.66
2023-06-03T00:02:53.834Z,95954.13
2023-06-03T00:05:22.286Z,95954.69
2023-06-03T00:10:17.834Z,95952.56
2023-06-03T00:12:45.791Z,95962.75
2023-06-03T00:15:13.642Z,95954.44
2023-06-03T00:17:41.303Z,95965.19
2023-06-03T00:20:11.517Z,95959.00
2023-06-03T00:22:39.825Z,95960.88
2023-06-03T00:25:08.776Z,95960.63
2023-06-03T00:27:36.933Z,95957.44
2023-06-03T00:30:05.392Z,95966.84
2023-06-03T00:32:33.434Z,95969.53
2023-06-03T00:35:01.203Z,95976.81
2023-06-03T00:37:30.179Z,95972.81
2023-06-03T00:39:57.746Z,95975.78
2023-06-03T00:42:25.331Z,95984.13
2023-06-03T00:44:52.948Z,95979.31
2023-06-03T00:47:22.203Z,95975.03
2023-06-03T00:49:50.032Z,95977.19
2023-06-03T00:52:19.890Z,95973.97
2023-06-03T00:54:50.273Z,95980.44
2023-06-03T00:57:18.503Z,95976.16
2023-06-03T00:59:46.156Z,95973.25
2023-06-03T01:02:14.303Z,95978.91
2023-06-03T01:04:46.511Z,95979.13
2023-06-03T01:07:22.098Z,95977.78
2023-06-03T01:10:07.540Z,95972.69
2023-06-03T01:12:43.155Z,95973.28
2023-06-03T01:15:14.519Z,95978.06
2023-06-03T01:17:46.640Z,95985.09
2023-06-03T01:20:14.363Z,95976.53
2023-06-03T01:22:44.095Z,95977.91
2023-06-03T01:25:16.504Z,95972.28
2023-06-03T01:27:46.684Z,95979.81
2023-06-03T01:30:16.872Z,95979.53
2023-06-03T01:32:46.081Z,95977.94
2023-06-03T01:35:15.391Z,95965.38
2023-06-03T01:37:43.287Z,95970.19
2023-06-03T01:40:13.120Z,95963.53
2023-06-03T01:42:40.886Z,95969.16
2023-06-03T01:45:09.561Z,95968.66
2023-06-03T01:47:37.200Z,95976.16
2023-06-03T01:50:05.458Z,95967.59
2023-06-03T01:52:33.152Z,95966.25
2023-06-03T01:55:00.690Z,95979.41
2023-06-03T01:57:29.639Z,95979.97
2023-06-03T01:59:57.904Z,95984.25
2023-06-03T02:02:25.609Z,95982.13
2023-06-03T02:04:57.195Z,95986.16
2023-06-03T02:07:26.959Z,95979.78
2023-06-03T02:09:54.729Z,95985.69
2023-06-03T02:12:22.332Z,95980.56
2023-06-03T02:14:54.617Z,95980.56
2023-06-03T02:17:23.600Z,95980.56
2023-06-03T02:19:51.329Z,95989.69
2023-06-03T02:22:19.265Z,95988.66
2023-06-03T02:24:47.607Z,95981.69
2023-06-03T02:27:15.791Z,95991.09
2023-06-03T02:29:45.569Z,95990.28
2023-06-03T02:32:14.467Z,95989.78
2023-06-03T02:34:42.078Z,96001.56
2023-06-03T02:37:11.846Z,95998.66
2023-06-03T02:39:39.564Z,95995.44
2023-06-03T02:42:07.949Z,95989.53
2023-06-03T02:44:35.629Z,95991.44
2023-06-03T02:47:03.186Z,95995.47
2023-06-03T02:49:32.150Z,96000.81
2023-06-03T02:51:59.882Z,96001.38
2023-06-03T02:54:27.466Z,95997.38
2023-06-03T02:56:55.118Z,95992.31
2023-06-03T02:59:22.665Z,95992.56
2023-06-03T03:01:50.357Z,95993.66
2023-06-03T03:04:17.957Z,95996.31
2023-06-03T03:06:46.883Z,95996.06
2023-06-03T03:09:14.506Z,95996.31
2023-06-03T03:11:42.189Z,96001.41
2023-06-03T03:14:09.759Z,96008.66
2023-06-03T03:16:37.470Z,96004.66
2023-06-03T03:19:05.132Z,96005.19
2023-06-03T03:21:34.461Z,96008.44
2023-06-03T03:24:03.597Z,96012.72
2023-06-03T03:26:31.307Z,96016.47
2023-06-03T03:28:59.018Z,96011.38
2023-06-03T03:31:27.342Z,96007.09
2023-06-03T03:33:55.005Z,96010.31
2023-06-03T03:36:23.424Z,96011.66
2023-06-03T03:39:01.668Z,96010.88
2023-06-03T03:41:30.616Z,96010.03
2023-06-03T03:43:58.308Z,96016.22
2023-06-03T03:46:26.172Z,96008.47
2023-06-03T03:48:53.852Z,96022.94
2023-06-03T03:51:21.460Z,96007.63
2023-06-03T03:53:50.544Z,96010.03
2023-06-03T03:56:19.837Z,96011.13
2023-06-03T03:58:49.828Z,96004.94
2023-06-03T04:01:19.517Z,96010.31
2023-06-03T04:03:48.815Z,96004.94
2023-06-03T04:06:29.337Z,96003.09
2023-06-03T04:08:57.369Z,96006.84
2023-06-03T04:11:28.196Z,96006.06
2023-06-03T04:13:58.356Z,96006.84
2023-06-03T04:16:56.776Z,96006.84
2023-06-03T04:19:31.758Z,96001.47
2023-06-03T04:22:00.004Z,95999.59
2023-06-03T04:24:28.183Z,95998.53
2023-06-03T04:26:55.793Z,96010.84
2023-06-03T04:29:25.124Z,96002.50
2023-06-03T04:31:52.909Z,95997.41
2023-06-03T04:34:20.794Z,96005.97
2023-06-03T04:36:48.356Z,95999.22
2023-06-03T04:39:18.689Z,96001.75
2023-06-03T04:41:46.752Z,96002.56
2023-06-03T04:44:14.448Z,96000.38
2023-06-03T04:46:47.413Z,96000.88
2023-06-03T04:49:15.418Z,96009.19
2023-06-03T04:51:43.768Z,96010.56
2023-06-03T04:54:11.520Z,96007.34
2023-06-03T04:56:39.092Z,96011.03
2023-06-03T04:59:07.427Z,96006.94
2023-06-03T05:01:38.465Z,95995.19
2023-06-03T05:04:09.480Z,96011.91
2023-06-03T05:06:37.560Z,96012.91
2023-06-03T05:09:05.148Z,96008.63
2023-06-03T05:11:32.992Z,96011.19
2023-06-03T05:14:00.583Z,96015.66
2023-06-03T05:16:28.169Z,96017.50
2023-06-03T05:18:55.776Z,96016.91
2023-06-03T05:21:24.708Z,96021.84
2023-06-03T05:23:52.345Z,96012.44
2023-06-03T05:26:19.962Z,96019.78
2023-06-03T05:28:49.494Z,96011.78
2023-06-03T05:31:17.294Z,96015.47
2023-06-03T05:33:45.588Z,96020.19
2023-06-03T05:36:13.333Z,96018.88
2023-06-03T05:38:42.292Z,96021.16
2023-06-03T05:41:09.842Z,96016.84
2023-06-03T05:43:37.476Z,96022.38
2023-06-03T05:46:05.419Z,96020.53
2023-06-03T05:48:35.280Z,96016.09
2023-06-03T05:51:04.960Z,96013.63
2023-06-03T05:53:32.879Z,96012.41
2023-06-03T05:56:01.855Z,96016.31
2023-06-03T05:58:29.391Z,96018.53
2023-06-03T06:00:57.001Z,96026.00
2023-06-03T06:03:24.762Z,96019.22
2023-06-03T06:05:52.448Z,96022.50
2023-06-03T06:08:20.041Z,96009.19
2023-06-03T06:10:47.621Z,96006.88
2023-06-03T06:13:16.531Z,96010.47
2023-06-03T06:15:59.404Z,96010.25
2023-06-03T06:18:27.096Z,96009.25
2023-06-03T06:20:54.929Z,96014.44
2023-06-03T06:23:22.559Z,96019.03
2023-06-03T06:25:51.362Z,96018.50
2023-06-03T06:28:21.608Z,96015.31
2023-06-03T06:30:49.196Z,96019.09
2023-06-03T06:33:17.374Z,96017.00
2023-06-03T06:35:45.507Z,96024.59
2023-06-03T06:38:14.105Z,96022.78
2023-06-03T06:40:41.907Z,96016.59
2023-06-03T06:43:10.476Z,96029.53
2023-06-03T06:45:40.210Z,96017.69
2023-06-03T06:48:10.088Z,96020.38
2023-06-03T06:50:47.766Z,96018.75
2023-06-03T06:53:16.597Z,96024.97
2023-06-03T06:55:50.819Z,96030.84
2023-06-03T06:58:19.018Z,96034.03
2023-06-03T07:00:48.531Z,96032.47
2023-06-03T07:03:17.759Z,96023.28
2023-06-03T07:05:46.228Z,96025.66
2023-06-03T07:08:14.385Z,96024.59
2023-06-03T07:10:41.952Z,96028.88
2023-06-03T07:13:09.574Z,96025.91
2023-06-03T07:15:41.211Z,96020.50
2023-06-03T07:18:11.262Z,96017.53
2023-06-03T07:20:42.512Z,96015.63
2023-06-03T07:23:11.754Z,96021.00
2023-06-03T07:25:44.115Z,96016.69
2023-06-03T07:28:12.924Z,96029.53
2023-06-03T07:30:41.848Z,96025.41
2023-06-03T07:33:13.870Z,96026.88
2023-06-03T07:35:41.612Z,96029.97
2023-06-03T07:38:09.162Z,96035.13
2023-06-03T07:40:41.759Z,96032.25
2023-06-03T07:43:10.134Z,96028.97
2023-06-03T07:45:38.044Z,96032.78
2023-06-03T07:48:07.405Z,96034.16
2023-06-03T07:50:36.806Z,96028.78
2023-06-03T07:53:05.357Z,96034.47
2023-06-03T07:55:40.106Z,96024.78
2023-06-03T07:58:07.707Z,96030.72
2023-06-03T08:00:35.704Z,96037.44
2023-06-03T08:03:03.680Z,96041.50
2023-06-03T08:05:38.011Z,96038.31
2023-06-03T08:08:06.693Z,96029.44
2023-06-03T08:10:35.643Z,96027.03
2023-06-03T08:13:03.251Z,96027.03
2023-06-03T08:15:33.588Z,96035.41
2023-06-03T08:18:01.476Z,96034.00
2023-06-03T08:20:29.298Z,96031.94
2023-06-03T08:22:59.223Z,96034.91
2023-06-03T08:25:26.945Z,96041.66
2023-06-03T08:27:54.723Z,96029.28
2023-06-03T08:30:23.300Z,96033.59
2023-06-03T08:32:52.319Z,96030.41
2023-06-03T08:35:22.317Z,96035.78
2023-06-03T08:37:50.160Z,96038.47
2023-06-03T08:40:22.439Z,96033.38
2023-06-03T08:42:51.201Z,96036.88
2023-06-03T08:45:20.248Z,96042.25
2023-06-03T08:48:02.414Z,96034.16
2023-06-03T08:50:30.758Z,96029.88
2023-06-03T08:52:59.237Z,96039.84
2023-06-03T08:55:28.770Z,96029.38
2023-06-03T08:58:01.960Z,96031.78
2023-06-03T09:00:30.026Z,96027.47
2023-06-03T09:02:58.212Z,96027.19
2023-06-03T09:05:26.687Z,96031.78
2023-06-03T09:07:54.500Z,96026.38
2023-06-03T09:10:23.055Z,96027.72
2023-06-03T09:12:53.771Z,96021.50
2023-06-03T09:15:21.582Z,96031.47
2023-06-03T09:17:49.231Z,96027.72
2023-06-03T09:20:16.921Z,96028.78
2023-06-03T09:22:47.219Z,96020.72
2023-06-03T09:25:15.459Z,96025.00
2023-06-03T09:27:43.219Z,96026.88
2023-06-03T09:30:12.968Z,96026.09
2023-06-03T09:32:41.099Z,96023.41
2023-06-03T09:35:09.578Z,96025.31
2023-06-03T09:37:37.167Z,96020.72
2023-06-03T09:40:10.112Z,96025.00
2023-06-03T09:42:44.236Z,96021.50
2023-06-03T09:45:27.142Z,96023.91
2023-06-03T09:47:55.280Z,96030.91
2023-06-03T09:50:23.370Z,96027.41
2023-06-03T09:52:51.004Z,96031.19
2023-06-03T09:55:19.449Z,96026.09
2023-06-03T09:58:03.021Z,96033.88
2023-06-03T10:00:32.581Z,96028.22
2023-06-03T10:03:08.887Z,96031.19
2023-06-03T10:05:37.176Z,96026.59
2023-06-03T10:08:06.079Z,96030.41
2023-06-03T10:10:35.124Z,96023.91
2023-06-03T10:13:21.140Z,96024.44
2023-06-03T10:15:53.246Z,96027.91
2023-06-03T10:18:35.886Z,96023.53
2023-06-03T10:21:07.501Z,96013.88
2023-06-03T10:23:38.583Z,96025.22
2023-06-03T10:26:06.501Z,96013.59
2023-06-03T10:28:34.571Z,96013.88
2023-06-03T10:31:06.159Z,96011.19
2023-06-03T10:33:35.156Z,96011.97
2023-06-03T10:36:05.051Z,96012.47
2023-06-03T10:38:33.630Z,96006.78
2023-06-03T10:41:02.014Z,96008.13
2023-06-03T10:43:32.911Z,96015.09
2023-06-03T10:46:02.330Z,96002.16
2023-06-03T10:48:33.771Z,96006.22
2023-06-03T10:51:11.618Z,95993.03
2023-06-03T10:53:51.340Z,95994.66
2023-06-03T10:56:29.673Z,95994.94
2023-06-03T10:59:03.553Z,95997.34
2023-06-03T11:02:00.506Z,95995.97
2023-06-03T11:04:31.284Z,95989.75
2023-06-03T11:06:59.011Z,95989.47
2023-06-03T11:09:35.665Z,95995.69
2023-06-03T11:12:06.611Z,95988.88
2023-06-03T11:14:57.007Z,95989.72
2023-06-03T11:17:26.186Z,95994.28
2023-06-03T11:19:59.852Z,95986.19
2023-06-03T11:22:43.942Z,95988.59
2023-06-03T11:25:28.517Z,95990.25
2023-06-03T11:28:38.069Z,95981.56
2023-06-03T11:31:08.104Z,95979.19
2023-06-03T11:33:36.375Z,95989.66
2023-06-03T11:36:56.101Z,95983.47
2023-06-03T11:39:25.580Z,95980.78
2023-06-03T11:42:12.525Z,95981.28
2023-06-03T11:44:42.493Z,95982.38
2023-06-03T11:47:10.340Z,95968.59
2023-06-03T11:49:39.901Z,95976.09
2023-06-03T11:52:09.258Z,95976.88
2023-06-03T11:54:39.643Z,95975.00
2023-06-03T11:57:09.060Z,95963.75
2023-06-03T11:59:42.188Z,95968.03
2023-06-03T12:02:10.234Z,95958.84
2023-06-03T12:04:38.513Z,95965.63
2023-06-03T12:07:11.696Z,95958.38
2023-06-03T12:09:40.753Z,95962.13
2023-06-03T12:12:09.745Z,95951.38
2023-06-03T12:14:39.586Z,95952.16
2023-06-03T12:17:15.054Z,95948.97
2023-06-03T12:19:45.192Z,95955.97
2023-06-03T12:22:12.981Z,95955.13
2023-06-03T12:24:44.307Z,95948.97
2023-06-03T12:27:18.547Z,95952.97
2023-06-03T12:29:48.785Z,95948.09
2023-06-03T12:32:17.138Z,95940.19
2023-06-03T12:34:46.017Z,95949.06
2023-06-03T12:37:14.578Z,95939.72
2023-06-03T12:39:50.102Z,95938.59
2023-06-03T12:42:18.716Z,95937.22
2023-06-03T12:44:48.109Z,95940.69
2023-06-03T12:47:17.735Z,95938.81
2023-06-03T12:49:46.960Z,95933.72
2023-06-03T12:54:51.884Z,95926.94
2023-06-03T12:57:19.911Z,95926.16
2023-06-03T13:00:07.549Z,95930.66
2023-06-03T13:02:35.888Z,95924.47
2023-06-03T13:05:03.892Z,95923.06
2023-06-03T13:07:31.522Z,95920.91
2023-06-03T13:10:01.290Z,95918.19
2023-06-03T13:12:30.687Z,95920.06
2023-06-03T13:14:58.846Z,95925.47
2023-06-03T13:17:27.017Z,95921.19
2023-06-03T13:19:55.533Z,95924.19
2023-06-03T13:22:25.793Z,95914.97
2023-06-03T13:24:53.775Z,95921.47
2023-06-03T13:27:23.217Z,95921.19
2023-06-03T13:29:52.616Z,95914.38
2023-06-03T13:32:22.276Z,95915.22
2023-06-03T13:34:52.406Z,95916.28
2023-06-03T13:37:20.494Z,95903.13
2023-06-03T13:39:48.408Z,95909.31
2023-06-03T13:42:16.202Z,95900.63
2023-06-03T13:44:45.445Z,95905.72
2023-06-03T13:47:13.245Z,95900.03
2023-06-03T13:49:40.821Z,95907.31
2023-06-03T13:52:08.413Z,95891.16
2023-06-03T13:54:35.988Z,95900.03
2023-06-03T13:57:03.618Z,95907.53
2023-06-03T13:59:31.768Z,95896.16
2023-06-03T14:02:00.940Z,95897.16
2023-06-03T14:04:28.580Z,95890.66
2023-06-03T14:06:56.262Z,95899.75
2023-06-03T14:09:23.880Z,95881.97
2023-06-03T14:11:51.951Z,95883.88
2023-06-03T14:14:20.594Z,95876.88
2023-06-03T14:16:48.386Z,95868.81
2023-06-03T14:19:17.494Z,95871.19
2023-06-03T14:21:45.632Z,95866.94
2023-06-03T14:24:13.399Z,95867.13
2023-06-03T14:26:41.029Z,95861.72
2023-06-03T14:29:11.301Z,95869.22
2023-06-03T14:31:40.364Z,95871.50
2023-06-03T14:34:08.223Z,95854.72
2023-06-03T14:36:39.144Z,95863.31
2023-06-03T14:39:07.359Z,95870.00
2023-06-03T14:41:35.793Z,95871.22
2023-06-03T14:44:03.407Z,95876.22
2023-06-03T14:46:31.089Z,95871.63
2023-06-03T14:48:58.726Z,95869.91
2023-06-03T14:51:26.520Z,95869.00
2023-06-03T14:53:55.514Z,95859.53
2023-06-03T14:56:23.702Z,95866.81
2023-06-03T14:58:51.358Z,95863.81
2023-06-03T15:01:19.004Z,95872.78
2023-06-03T15:03:47.036Z,95864.03
2023-06-03T15:06:16.099Z,95859.84
2023-06-03T15:08:44.926Z,95866.13
2023-06-03T15:11:13.977Z,95861.63
2023-06-03T15:13:41.558Z,95861.91
2023-06-03T15:16:09.159Z,95869.41
2023-06-03T15:18:37.177Z,95870.44
2023-06-03T15:21:05.515Z,95873.63
2023-06-03T15:23:33.209Z,95864.50
2023-06-03T15:26:01.125Z,95865.84
2023-06-03T15:28:30.067Z,95873.63
2023-06-03T15:30:57.686Z,95873.81
2023-06-03T15:33:25.365Z,95863.53
2023-06-03T15:35:53.111Z,95864.34
2023-06-03T15:38:20.697Z,95868.13
2023-06-03T15:40:48.372Z,95870.63
2023-06-03T15:43:17.938Z,95865.25
2023-06-03T15:45:46.922Z,95867.03
2023-06-03T15:48:16.028Z,95871.94
2023-06-03T15:50:43.648Z,95873.50
2023-06-03T15:53:11.642Z,95872.00
2023-06-03T15:55:41.100Z,95873.31
2023-06-03T15:58:08.720Z,95884.41
2023-06-03T16:00:37.928Z,95882.91
2023-06-03T16:03:07.421Z,95882.09
2023-06-03T16:05:35.481Z,95879.31
2023-06-03T16:08:03.254Z,95877.88
2023-06-03T16:10:30.917Z,95880.59
2023-06-03T16:12:58.627Z,95881.00
2023-06-03T16:15:26.403Z,95880.03
2023-06-03T16:17:54.018Z,95874.13
2023-06-03T16:20:23.104Z,95880.31
2023-06-03T16:22:51.231Z,95877.63
2023-06-03T16:25:19.029Z,95877.31
2023-06-03T16:27:47.149Z,95874.41
2023-06-03T16:30:15.184Z,95875.84
2023-06-03T16:32:42.832Z,95877.00
2023-06-03T16:35:11.136Z,95870.13
2023-06-03T16:37:40.066Z,95877.38
2023-06-03T16:40:08.776Z,95879.00
2023-06-03T16:42:36.354Z,95881.78
2023-06-03T16:45:04.121Z,95888.28
2023-06-03T16:47:31.707Z,95888.38
2023-06-03T16:49:59.318Z,95892.25
2023-06-03T16:52:27.080Z,95893.06
2023-06-03T16:54:56.017Z,95904.34
2023-06-03T16:57:27.818Z,95904.25
2023-06-03T16:59:55.921Z,95903.16
2023-06-03T17:02:23.666Z,95903.66
2023-06-03T17:04:51.382Z,95917.13
2023-06-03T17:07:18.988Z,95921.44
2023-06-03T17:09:46.719Z,95912.53
2023-06-03T17:12:15.703Z,95915.53
2023-06-03T17:14:43.262Z,95922.03
2023-06-03T17:17:11.040Z,95920.41
2023-06-03T17:19:40.105Z,95919.94
2023-06-03T17:22:07.843Z,95922.03
2023-06-03T17:24:35.466Z,95924.72
2023-06-03T17:27:03.096Z,95924.41
2023-06-03T17:29:32.022Z,95930.41
2023-06-03T17:31:59.650Z,95926.41
2023-06-03T17:34:27.294Z,95933.47
2023-06-03T17:36:54.900Z,95932.38
2023-06-03T17:39:22.526Z,95929.69
2023-06-03T17:41:50.102Z,95934.00
2023-06-03T17:44:20.009Z,95928.59
2023-06-03T17:46:49.186Z,95927.00
2023-06-03T17:49:16.765Z,95928.59
2023-06-03T17:51:44.365Z,95928.91
2023-06-03T17:54:11.920Z,95936.97
2023-06-03T17:56:39.600Z,95925.97
2023-06-03T17:59:07.152Z,95926.28
2023-06-03T18:01:34.827Z,95929.56
2023-06-03T18:04:03.792Z,95922.91
2023-06-03T18:06:31.471Z,95919.38
2023-06-03T18:08:59.073Z,95923.78
2023-06-03T18:11:27.238Z,95925.69
2023-06-03T18:13:54.865Z,95919.78
2023-06-03T18:16:22.701Z,95926.56
2023-06-03T18:18:50.346Z,95930.66
2023-06-03T18:21:20.093Z,95918.28
2023-06-03T18:23:47.762Z,95919.38
2023-06-03T18:26:27.552Z,95925.34
2023-06-03T18:28:56.711Z,95917.06
2023-06-03T18:31:24.442Z,95924.94
2023-06-03T18:33:52.443Z,95928.41
2023-06-03T18:36:21.537Z,95934.13
2023-06-03T18:38:49.224Z,95937.13
2023-06-03T18:41:16.881Z,95940.41
2023-06-03T18:43:44.581Z,95934.75
2023-06-03T18:46:12.385Z,95930.22
2023-06-03T18:48:40.023Z,95934.53
2023-06-03T18:51:07.704Z,95925.75
2023-06-03T18:53:36.640Z,95926.56
2023-06-03T18:56:05.268Z,95929.63
2023-06-03T18:58:33.175Z,95927.00
2023-06-03T19:01:00.921Z,95922.94
2023-06-03T19:03:29.099Z,95926.81
2023-06-03T19:05:57.021Z,95933.66
2023-06-03T19:08:24.767Z,95933.66
2023-06-03T19:10:53.730Z,95941.91
2023-06-03T19:13:21.366Z,95938.94
2023-06-03T19:15:49.371Z,95942.22
2023-06-03T19:18:17.202Z,95942.78
2023-06-03T19:20:47.846Z,95946.91
2023-06-03T19:23:15.542Z,95950.66
2023-06-03T19:25:43.829Z,95946.16
2023-06-03T19:28:12.801Z,95956.63
2023-06-03T19:30:40.538Z,95959.41
2023-06-03T19:33:08.235Z,95962.38
2023-06-03T19:35:35.856Z,95960.28
2023-06-03T19:38:03.877Z,95965.16
2023-06-03T19:40:31.924Z,95968.72
2023-06-03T19:42:59.639Z,95978.16
2023-06-03T19:45:30.928Z,95977.94
2023-06-03T19:48:01.558Z,95975.81
2023-06-03T19:50:29.655Z,95980.41
2023-06-03T19:52:57.924Z,95982.84
2023-06-03T19:55:25.466Z,95981.00
2023-06-03T19:57:53.158Z,95982.63
2023-06-03T20:00:20.883Z,95984.50
2023-06-03T20:02:49.877Z,95987.31
2023-06-03T20:05:17.481Z,95995.59
2023-06-03T20:07:48.252Z,96001.84
2023-06-03T20:10:15.984Z,95998.38
2023-06-03T20:12:43.888Z,95997.06
2023-06-03T20:15:11.965Z,96008.31
2023-06-03T20:17:40.755Z,96009.69
2023-06-03T20:20:11.047Z,96017.31
2023-06-03T20:22:39.270Z,96014.91
2023-06-03T20:25:08.113Z,96020.22
2023-06-03T20:27:35.731Z,96023.03
2023-06-03T20:30:03.542Z,96026.28
2023-06-03T20:32:31.197Z,96016.91
2023-06-03T20:34:58.804Z,96028.16
2023-06-03T20:37:27.723Z,96022.50
2023-06-03T20:39:55.286Z,96028.47
2023-06-03T20:42:22.856Z,96025.31
2023-06-03T20:44:50.431Z,96024.28
2023-06-03T20:47:18.012Z,96025.13
2023-06-03T20:49:45.741Z,96024.63
2023-06-03T20:52:15.136Z,96022.16
2023-06-03T20:54:44.046Z,96032.69
2023-06-03T20:57:11.606Z,96027.81
2023-06-03T20:59:39.225Z,96026.50
2023-06-03T21:02:07.279Z,96026.56
2023-06-03T21:04:34.858Z,96035.97
2023-06-03T21:07:02.499Z,96024.44
2023-06-03T21:09:30.086Z,96034.94
2023-06-03T21:11:59.046Z,96033.34
2023-06-03T21:14:26.679Z,96030.16
2023-06-03T21:16:54.291Z,96031.22
2023-06-03T21:19:21.918Z,96031.75
2023-06-03T21:21:49.644Z,96027.75
2023-06-03T21:24:17.222Z,96033.41
2023-06-03T21:26:44.851Z,96032.59
2023-06-03T21:29:13.769Z,96033.41
2023-06-03T21:31:41.384Z,96031.81
2023-06-03T21:34:09.561Z,96033.44
2023-06-03T21:36:37.330Z,96028.59
2023-06-03T21:39:04.922Z,96030.72
2023-06-03T21:41:32.530Z,96023.44
2023-06-03T21:44:00.095Z,96028.53
2023-06-03T21:46:29.125Z,96035.53
2023-06-03T21:48:56.945Z,96035.53
2023-06-03T21:51:24.593Z,96028.25
2023-06-03T21:53:53.426Z,96036.31
2023-06-03T21:56:21.075Z,96029.06
2023-06-03T21:58:49.725Z,96031.75
2023-06-03T22:01:25.046Z,96035.22
2023-06-03T22:03:54.808Z,96029.34
2023-06-03T22:06:23.140Z,96030.16
2023-06-03T22:08:51.324Z,96033.91
2023-06-03T22:11:19.365Z,96035.53
2023-06-03T22:13:47.041Z,96030.72
2023-06-03T22:16:14.740Z,96024.53
2023-06-03T22:18:42.565Z,96025.34
2023-06-03T22:21:11.515Z,96026.41
2023-06-03T22:23:39.179Z,96026.16
2023-06-03T22:26:06.888Z,96022.66
2023-06-03T22:28:34.550Z,96020.28
2023-06-03T22:31:02.329Z,96012.22
2023-06-03T22:33:29.922Z,96018.94
2023-06-03T22:35:57.497Z,96013.56
2023-06-03T22:38:26.404Z,96011.16
2023-06-03T22:40:54.490Z,96010.09
2023-06-03T22:43:22.956Z,96011.44
2023-06-03T22:45:52.664Z,96015.19
2023-06-03T22:48:21.042Z,96010.94
2023-06-03T22:50:48.666Z,96003.94
2023-06-03T22:53:17.468Z,96003.16
2023-06-03T22:55:46.410Z,96008.03
2023-06-03T22:58:14.010Z,96003.72
2023-06-03T23:00:41.564Z,96009.88
2023-06-03T23:03:11.847Z,96007.47
2023-06-03T23:05:39.549Z,96006.19
2023-06-03T23:08:07.661Z,96008.03
2023-06-03T23:10:35.694Z,96008.31
2023-06-03T23:13:04.641Z,96015.59
2023-06-03T23:15:32.233Z,96009.72
2023-06-03T23:17:59.893Z,96010.00
2023-06-03T23:20:29.165Z,96008.38
2023-06-03T23:22:56.988Z,96011.06
2023-06-03T23:25:24.638Z,96014.03
2023-06-03T23:27:52.221Z,96022.38
2023-06-03T23:30:21.386Z,96014.88
2023-06-03T23:32:49.144Z,96015.94
2023-06-03T23:35:16.889Z,96020.78
2023-06-03T23:37:45.743Z,96018.66
2023-06-03T23:40:14.698Z,96024.88
2023-06-03T23:42:42.393Z,96018.94
2023-06-03T23:45:11.457Z,96023.53
2023-06-03T23:47:40.513Z,96020.34
2023-06-03T23:50:08.856Z,96020.34
2023-06-03T23:52:36.450Z,96024.88
2023-06-03T23:55:04.822Z,96022.47
2023-06-03T23:57:32.408Z,96023.84
